createdAt,value
2018-02-24T00:00:54.705Z,0
2018-02-24T00:01:55.413Z,0
2018-02-24T00:02:56.120Z,0
2018-02-24T00:03:56.826Z,0
2018-02-24T00:04:57.532Z,0
2018-02-24T00:05:58.256Z,0
2018-02-24T00:06:58.963Z,0
2018-02-24T00:07:59.671Z,0
2018-02-24T00:09:00.380Z,0
2018-02-24T00:10:01.135Z,0
2018-02-24T00:11:01.817Z,0
2018-02-24T00:12:02.566Z,0
2018-02-24T00:13:03.245Z,0
2018-02-24T00:14:03.950Z,0
2018-02-24T00:15:04.657Z,0
2018-02-24T00:16:05.365Z,0
2018-02-24T00:17:06.072Z,0
2018-02-24T00:18:06.780Z,0
2018-02-24T00:19:07.486Z,0
2018-02-24T00:20:08.192Z,0
2018-02-24T00:21:08.898Z,0
2018-02-24T00:22:09.606Z,0
2018-02-24T00:23:10.311Z,0
2018-02-24T00:24:11.016Z,0
2018-02-24T00:25:11.738Z,0
2018-02-24T00:26:12.457Z,0
2018-02-24T00:27:13.180Z,0
2018-02-24T00:28:13.901Z,0
2018-02-24T00:29:14.605Z,0
2018-02-24T00:30:15.309Z,0
2018-02-24T00:31:16.015Z,0
2018-02-24T00:32:16.719Z,0
2018-02-24T00:33:17.427Z,0
2018-02-24T00:34:18.147Z,0
2018-02-24T00:35:18.851Z,0
2018-02-24T00:36:19.557Z,0
2018-02-24T00:37:20.266Z,0
2018-02-24T00:38:20.985Z,0
2018-02-24T00:39:21.690Z,0
2018-02-24T00:40:22.394Z,0
2018-02-24T00:41:23.099Z,0
2018-02-24T00:42:23.809Z,0
2018-02-24T00:43:24.528Z,0
2018-02-24T00:44:25.234Z,0
2018-02-24T00:45:25.940Z,0
2018-02-24T00:46:26.660Z,0
2018-02-24T00:47:27.370Z,0
2018-02-24T00:48:28.079Z,0
2018-02-24T00:49:28.785Z,0
2018-02-24T00:50:29.490Z,0
2018-02-24T00:51:30.198Z,0
2018-02-24T00:52:30.903Z,0
2018-02-24T00:53:31.607Z,0
2018-02-24T00:54:32.314Z,0
2018-02-24T00:55:33.021Z,0
2018-02-24T00:56:33.740Z,0
2018-02-24T00:57:34.447Z,0
2018-02-24T00:58:35.159Z,0
2018-02-24T00:59:35.867Z,0
2018-02-24T01:00:36.572Z,0
2018-02-24T01:01:37.291Z,0
2018-02-24T01:02:37.996Z,0
2018-02-24T01:03:38.704Z,0
2018-02-24T01:04:39.410Z,0
2018-02-24T01:05:40.130Z,0
2018-02-24T01:06:40.840Z,0
2018-02-24T01:07:41.545Z,0
2018-02-24T01:08:42.253Z,0
2018-02-24T01:09:42.961Z,0
2018-02-24T01:10:43.666Z,0
2018-02-24T01:11:44.374Z,0
2018-02-24T01:12:45.079Z,0
2018-02-24T01:13:45.785Z,0
2018-02-24T01:14:46.490Z,0
2018-02-24T01:15:47.209Z,0
2018-02-24T01:16:47.915Z,0
2018-02-24T01:17:48.623Z,0
2018-02-24T01:18:49.327Z,0
2018-02-24T01:19:50.032Z,0
2018-02-24T01:20:50.738Z,0
2018-02-24T01:21:51.445Z,0
2018-02-24T01:22:52.152Z,0
2018-02-24T01:23:52.872Z,0
2018-02-24T01:24:53.591Z,0
2018-02-24T01:25:54.312Z,0
2018-02-24T01:26:55.029Z,0
2018-02-24T01:27:55.749Z,0
2018-02-24T01:28:56.458Z,0
2018-02-24T01:29:57.162Z,0
2018-02-24T01:30:57.869Z,0
2018-02-24T01:31:58.574Z,0
2018-02-24T01:32:59.280Z,0
2018-02-24T01:33:59.988Z,0
2018-02-24T01:35:00.694Z,0
2018-02-24T01:36:01.399Z,0
2018-02-24T01:37:02.107Z,0
2018-02-24T01:38:02.827Z,0
2018-02-24T01:39:03.534Z,0
2018-02-24T01:40:04.252Z,0
2018-02-24T01:41:04.958Z,0
2018-02-24T01:42:05.667Z,0
2018-02-24T01:43:06.372Z,0
2018-02-24T01:44:07.077Z,0
2018-02-24T01:45:07.798Z,0
2018-02-24T01:46:08.505Z,0
2018-02-24T01:47:09.210Z,0
2018-02-24T01:48:09.916Z,0
2018-02-24T01:49:10.621Z,0
2018-02-24T01:50:11.326Z,0
2018-02-24T01:51:12.030Z,0
2018-02-24T01:52:12.734Z,0
2018-02-24T01:53:13.439Z,0
2018-02-24T01:54:14.143Z,0
2018-02-24T01:55:14.848Z,0
2018-02-24T01:56:15.553Z,0
2018-02-24T01:57:16.258Z,0
2018-02-24T01:58:16.964Z,0
2018-02-24T01:59:17.671Z,0
2018-02-24T02:00:18.375Z,0
2018-02-24T02:01:19.080Z,0
2018-02-24T02:02:19.785Z,0
2018-02-24T02:03:20.493Z,0
2018-02-24T02:04:21.198Z,0
2018-02-24T02:05:21.904Z,0
2018-02-24T02:06:22.610Z,0
2018-02-24T02:07:23.318Z,0
2018-02-24T02:08:24.022Z,0
2018-02-24T02:09:24.730Z,0
2018-02-24T02:10:25.448Z,0
2018-02-24T02:11:26.155Z,0
2018-02-24T02:12:26.873Z,0
2018-02-24T02:13:27.583Z,0
2018-02-24T02:14:28.286Z,0
2018-02-24T02:15:28.991Z,0
2018-02-24T02:16:29.699Z,0
2018-02-24T02:17:30.414Z,0
2018-02-24T02:18:31.121Z,0
2018-02-24T02:19:31.825Z,0
2018-02-24T02:20:32.529Z,0
2018-02-24T02:21:33.234Z,0
2018-02-24T02:22:33.954Z,0
2018-02-24T02:23:34.660Z,0
2018-02-24T02:24:35.368Z,0
2018-02-24T02:25:36.068Z,0
2018-02-24T02:26:36.775Z,0
2018-02-24T02:27:37.489Z,0
2018-02-24T02:28:38.195Z,0
2018-02-24T02:29:38.906Z,0
2018-02-24T02:30:39.609Z,0
2018-02-24T02:31:40.315Z,0
2018-02-24T02:32:41.035Z,0
2018-02-24T02:33:41.741Z,0
2018-02-24T02:34:42.449Z,0
2018-02-24T02:35:43.155Z,0
2018-02-24T02:36:43.861Z,0
2018-02-24T02:37:44.567Z,0
2018-02-24T02:38:45.272Z,0
2018-02-24T02:39:45.976Z,0
2018-02-24T02:40:46.693Z,0
2018-02-24T02:41:47.405Z,0
2018-02-24T02:42:48.105Z,0
2018-02-24T02:43:48.811Z,0
2018-02-24T02:44:49.533Z,0
2018-02-24T02:45:50.246Z,0
2018-02-24T02:46:50.964Z,0
2018-02-24T02:47:51.682Z,0
2018-02-24T02:48:52.388Z,0
2018-02-24T02:49:53.091Z,0
2018-02-24T02:50:53.796Z,0
2018-02-24T02:51:54.501Z,0
2018-02-24T02:52:55.219Z,0
2018-02-24T02:53:55.926Z,0
2018-02-24T02:54:56.631Z,0
2018-02-24T02:55:57.336Z,0
2018-02-24T02:56:58.052Z,0
2018-02-24T02:57:58.757Z,0
2018-02-24T02:58:59.469Z,0
2018-02-24T03:00:00.180Z,0
2018-02-24T03:01:00.884Z,0
2018-02-24T03:02:01.590Z,0
2018-02-24T03:03:02.294Z,0
2018-02-24T03:04:03.000Z,0
2018-02-24T03:05:03.721Z,0
2018-02-24T03:06:04.427Z,0
2018-02-24T03:07:05.130Z,0
2018-02-24T03:08:05.883Z,0
2018-02-24T03:09:06.539Z,0
2018-02-24T03:10:07.244Z,0
2018-02-24T03:11:07.949Z,0
2018-02-24T03:12:08.653Z,0
2018-02-24T03:13:09.359Z,0
2018-02-24T03:14:10.064Z,0
2018-02-24T03:15:10.768Z,0
2018-02-24T03:16:11.475Z,0
2018-02-24T03:17:12.190Z,0
2018-02-24T03:18:12.897Z,0
2018-02-24T03:19:13.613Z,0
2018-02-24T03:20:14.320Z,0
2018-02-24T03:21:15.036Z,0
2018-02-24T03:22:15.734Z,0
2018-02-24T03:23:16.440Z,0
2018-02-24T03:24:17.147Z,0
2018-02-24T03:25:17.853Z,0
2018-02-24T03:26:18.557Z,0
2018-02-24T03:27:19.263Z,0
2018-02-24T03:28:19.979Z,0
2018-02-24T03:29:20.687Z,0
2018-02-24T03:30:21.407Z,0
2018-02-24T03:31:22.114Z,0
2018-02-24T03:32:22.820Z,0
2018-02-24T03:33:23.527Z,0
2018-02-24T03:34:24.233Z,0
2018-02-24T03:35:24.939Z,0
2018-02-24T03:36:25.645Z,0
2018-02-24T03:37:26.350Z,0
2018-02-24T03:38:27.057Z,0
2018-02-24T03:39:27.774Z,0
2018-02-24T03:40:28.479Z,0
2018-02-24T03:41:29.185Z,0
2018-02-24T03:42:29.892Z,0
2018-02-24T03:43:30.598Z,0
2018-02-24T03:44:31.303Z,0
2018-02-24T03:45:32.022Z,0
2018-02-24T03:46:32.731Z,0
2018-02-24T03:47:33.435Z,0
2018-02-24T03:48:34.150Z,0
2018-02-24T03:49:34.863Z,0
2018-02-24T03:50:35.567Z,0
2018-02-24T03:51:36.272Z,0
2018-02-24T03:52:36.988Z,0
2018-02-24T03:53:37.694Z,0
2018-02-24T03:54:38.398Z,0
2018-02-24T03:55:39.118Z,0
2018-02-24T03:56:39.824Z,0
2018-02-24T03:57:40.529Z,0
2018-02-24T03:58:41.233Z,0
2018-02-24T03:59:41.940Z,0
2018-02-24T04:00:42.643Z,0
2018-02-24T04:01:43.348Z,0
2018-02-24T04:02:44.053Z,0
2018-02-24T04:03:44.757Z,0
2018-02-24T04:04:45.476Z,0
2018-02-24T04:05:46.195Z,0
2018-02-24T04:06:46.903Z,0
2018-02-24T04:07:47.611Z,0
2018-02-24T04:08:48.321Z,0
2018-02-24T04:09:49.034Z,0
2018-02-24T04:10:49.740Z,0
2018-02-24T04:11:50.449Z,0
2018-02-24T04:12:51.164Z,0
2018-02-24T04:13:51.869Z,0
2018-02-24T04:14:52.573Z,0
2018-02-24T04:15:53.278Z,0
2018-02-24T04:16:53.982Z,0
2018-02-24T04:17:54.702Z,0
2018-02-24T04:18:55.407Z,0
2018-02-24T04:19:56.112Z,0
2018-02-24T04:20:56.816Z,0
2018-02-24T04:21:57.533Z,0
2018-02-24T04:22:58.249Z,0
2018-02-24T04:23:58.954Z,0
2018-02-24T04:24:59.658Z,0
2018-02-24T04:26:00.364Z,0
2018-02-24T04:27:01.070Z,0
2018-02-24T04:28:01.775Z,0
2018-02-24T04:29:02.480Z,0
2018-02-24T04:30:03.185Z,0
2018-02-24T04:31:03.888Z,0
2018-02-24T04:32:04.596Z,0
2018-02-24T04:33:05.303Z,0
2018-02-24T04:34:06.012Z,0
2018-02-24T04:35:06.716Z,0
2018-02-24T04:36:07.421Z,0
2018-02-24T04:37:08.141Z,0
2018-02-24T04:38:08.844Z,0
2018-02-24T04:39:09.563Z,0
2018-02-24T04:40:10.268Z,0
2018-02-24T04:41:10.988Z,0
2018-02-24T04:42:11.692Z,0
2018-02-24T04:43:12.399Z,0
2018-02-24T04:44:13.104Z,0
2018-02-24T04:45:13.808Z,0
2018-02-24T04:46:14.513Z,0
2018-02-24T04:47:15.218Z,0
2018-02-24T04:48:15.922Z,0
2018-02-24T04:49:16.626Z,0
2018-02-24T04:50:17.331Z,0
2018-02-24T04:51:18.048Z,0
2018-02-24T04:52:18.754Z,0
2018-02-24T04:53:19.459Z,0
2018-02-24T04:54:20.176Z,0
2018-02-24T04:55:20.883Z,0
2018-02-24T04:56:21.590Z,0
2018-02-24T04:57:22.296Z,0
2018-02-24T04:58:23.013Z,0
2018-02-24T04:59:23.730Z,0
2018-02-24T05:00:24.435Z,0
2018-02-24T05:01:25.153Z,0
2018-02-24T05:02:25.859Z,0
2018-02-24T05:03:26.565Z,0
2018-02-24T05:04:27.272Z,0
2018-02-24T05:05:27.978Z,0
2018-02-24T05:06:28.686Z,0
2018-02-24T05:07:29.398Z,0
2018-02-24T05:08:30.104Z,0
2018-02-24T05:09:30.810Z,0
2018-02-24T05:10:31.530Z,0
2018-02-24T05:11:32.247Z,0
2018-02-24T05:12:32.956Z,0
2018-02-24T05:13:33.672Z,0
2018-02-24T05:14:34.376Z,0
2018-02-24T05:15:35.084Z,0
2018-02-24T05:16:35.789Z,0
2018-02-24T05:17:36.510Z,0
2018-02-24T05:18:37.215Z,0
2018-02-24T05:19:37.920Z,0
2018-02-24T05:20:38.680Z,0
2018-02-24T05:21:39.383Z,0
2018-02-24T05:22:40.089Z,0
2018-02-24T05:23:40.795Z,0
2018-02-24T05:24:41.498Z,0
2018-02-24T05:25:42.208Z,0
2018-02-24T05:26:42.907Z,0
2018-02-24T05:27:43.614Z,0
2018-02-24T05:28:44.363Z,0
2018-02-24T05:29:45.068Z,0
2018-02-24T05:30:45.786Z,0
2018-02-24T05:31:46.510Z,0
2018-02-24T05:32:47.214Z,0
2018-02-24T05:33:47.920Z,0
2018-02-24T05:34:48.626Z,0
2018-02-24T05:35:49.331Z,0
2018-02-24T05:36:50.036Z,0
2018-02-24T05:37:50.740Z,0
2018-02-24T05:38:51.445Z,0
2018-02-24T05:39:52.162Z,0
2018-02-24T05:40:52.881Z,0
2018-02-24T05:41:53.597Z,0
2018-02-24T05:42:54.304Z,0
2018-02-24T05:43:55.008Z,0
2018-02-24T05:44:55.711Z,0
2018-02-24T05:45:56.416Z,0
2018-02-24T05:46:57.132Z,0
2018-02-24T05:47:57.838Z,0
2018-02-24T05:48:58.543Z,0
2018-02-24T05:49:59.249Z,0
2018-02-24T05:50:59.968Z,0
2018-02-24T05:52:00.675Z,0
2018-02-24T05:53:01.381Z,0
2018-02-24T05:54:02.087Z,0
2018-02-24T05:55:02.793Z,0
2018-02-24T05:56:03.508Z,0
2018-02-24T05:57:04.243Z,0
2018-02-24T05:58:04.950Z,0
2018-02-24T05:59:05.653Z,0
2018-02-24T06:00:06.359Z,0
2018-02-24T06:01:07.064Z,0
2018-02-24T06:02:07.768Z,0
2018-02-24T06:03:08.485Z,0
2018-02-24T06:04:09.191Z,0
2018-02-24T06:05:09.900Z,0
2018-02-24T06:06:10.605Z,0
2018-02-24T06:07:11.310Z,0
2018-02-24T06:08:12.016Z,0
2018-02-24T06:09:12.723Z,0
2018-02-24T06:10:13.429Z,0
2018-02-24T06:11:14.149Z,0
2018-02-24T06:12:14.857Z,0
2018-02-24T06:13:15.563Z,0
2018-02-24T06:14:16.268Z,0
2018-02-24T06:15:16.975Z,0
2018-02-24T06:16:17.730Z,0
2018-02-24T06:17:18.435Z,0
2018-02-24T06:18:19.187Z,0
2018-02-24T06:19:19.894Z,5
2018-02-24T06:20:20.603Z,5
2018-02-24T06:21:21.311Z,5
2018-02-24T06:22:22.020Z,5
2018-02-24T06:23:22.739Z,5
2018-02-24T06:24:23.448Z,5
2018-02-24T06:25:24.155Z,5
2018-02-24T06:26:24.873Z,5
2018-02-24T06:27:25.587Z,10
2018-02-24T06:28:26.296Z,10
2018-02-24T06:29:27.003Z,10
2018-02-24T06:30:27.710Z,10
2018-02-24T06:31:28.429Z,10
2018-02-24T06:32:29.142Z,15
2018-02-24T06:33:29.862Z,15
2018-02-24T06:34:30.583Z,15
2018-02-24T06:35:31.290Z,15
2018-02-24T06:36:31.996Z,20
2018-02-24T06:37:32.706Z,20
2018-02-24T06:38:33.427Z,20
2018-02-24T06:39:34.138Z,20
2018-02-24T06:40:34.843Z,25
2018-02-24T06:41:35.565Z,25
2018-02-24T06:42:36.272Z,25
2018-02-24T06:43:37.026Z,30
2018-02-24T06:44:37.746Z,30
2018-02-24T06:45:38.456Z,35
2018-02-24T06:46:39.176Z,35
2018-02-24T06:47:39.887Z,40
2018-02-24T06:48:40.598Z,40
2018-02-24T06:49:41.322Z,45
2018-02-24T06:50:42.030Z,45
2018-02-24T06:51:42.739Z,45
2018-02-24T06:52:43.450Z,45
2018-02-24T06:53:44.162Z,50
2018-02-24T06:54:44.872Z,55
2018-02-24T06:55:45.583Z,60
2018-02-24T06:56:46.293Z,55
2018-02-24T06:57:47.016Z,60
2018-02-24T06:58:47.732Z,65
2018-02-24T06:59:48.443Z,65
2018-02-24T07:00:49.179Z,60
2018-02-24T07:01:49.866Z,65
2018-02-24T07:02:50.578Z,65
2018-02-24T07:03:51.287Z,65
2018-02-24T07:04:51.998Z,65
2018-02-24T07:05:52.723Z,70
2018-02-24T07:06:53.435Z,70
2018-02-24T07:07:54.147Z,75
2018-02-24T07:08:54.857Z,85
2018-02-24T07:09:55.580Z,90
2018-02-24T07:10:56.305Z,95
2018-02-24T07:11:57.016Z,100
2018-02-24T07:12:57.759Z,95
2018-02-24T07:13:58.477Z,90
2018-02-24T07:14:59.189Z,85
2018-02-24T07:15:59.901Z,85
2018-02-24T07:18:01.330Z,100
2018-02-24T07:19:02.039Z,105
2018-02-24T07:20:02.766Z,110
2018-02-24T07:21:03.493Z,115
2018-02-24T07:22:04.205Z,120
2018-02-24T07:23:04.917Z,125
2018-02-24T07:24:05.632Z,130
2018-02-24T07:25:06.347Z,135
2018-02-24T07:26:07.057Z,140
2018-02-24T07:27:07.771Z,140
2018-02-24T07:28:08.486Z,150
2018-02-24T07:29:09.211Z,150
2018-02-24T07:30:09.926Z,150
2018-02-24T07:31:10.647Z,160
2018-02-24T07:32:11.359Z,170
2018-02-24T07:33:12.073Z,170
2018-02-24T07:34:12.834Z,185
2018-02-24T07:35:13.535Z,190
2018-02-24T07:36:14.251Z,170
2018-02-24T07:37:14.969Z,160
2018-02-24T07:38:15.680Z,195
2018-02-24T07:39:16.393Z,230
2018-02-24T07:40:17.107Z,245
2018-02-24T07:41:17.821Z,255
2018-02-24T07:42:18.534Z,255
2018-02-24T07:43:19.249Z,270
2018-02-24T07:44:19.965Z,280
2018-02-24T07:45:20.691Z,285
2018-02-24T07:46:21.408Z,300
2018-02-24T07:47:22.124Z,310
2018-02-24T07:48:22.838Z,330
2018-02-24T07:49:23.556Z,335
2018-02-24T07:50:24.273Z,335
2018-02-24T07:51:25.007Z,320
2018-02-24T07:52:25.720Z,310
2018-02-24T07:53:26.436Z,290
2018-02-24T07:54:27.152Z,290
2018-02-24T07:55:27.870Z,295
2018-02-24T07:56:28.586Z,335
2018-02-24T07:57:29.302Z,330
2018-02-24T07:58:30.020Z,365
2018-02-24T07:59:30.781Z,370
2018-02-24T08:00:31.466Z,390
2018-02-24T08:01:32.223Z,405
2018-02-24T08:02:32.941Z,395
2018-02-24T08:03:33.656Z,400
2018-02-24T08:04:34.374Z,415
2018-02-24T08:05:35.090Z,405
2018-02-24T08:06:35.810Z,355
2018-02-24T08:07:36.533Z,370
2018-02-24T08:08:37.301Z,400
2018-02-24T08:09:37.978Z,410
2018-02-24T08:10:38.708Z,390
2018-02-24T08:11:39.428Z,410
2018-02-24T08:12:40.158Z,470
2018-02-24T08:13:40.876Z,490
2018-02-24T08:14:41.594Z,455
2018-02-24T08:15:42.315Z,420
2018-02-24T08:16:43.035Z,465
2018-02-24T08:17:43.754Z,515
2018-02-24T08:18:44.479Z,530
2018-02-24T08:19:45.215Z,520
2018-02-24T08:20:45.933Z,525
2018-02-24T08:21:46.651Z,535
2018-02-24T08:22:47.372Z,550
2018-02-24T08:23:48.092Z,560
2018-02-24T08:24:48.813Z,545
2018-02-24T08:25:49.534Z,570
2018-02-24T08:26:50.308Z,595
2018-02-24T08:27:50.975Z,580
2018-02-24T08:28:51.695Z,600
2018-02-24T08:29:52.417Z,610
2018-02-24T08:30:53.136Z,605
2018-02-24T08:31:53.864Z,600
2018-02-24T08:32:54.642Z,605
2018-02-24T08:33:55.309Z,605
2018-02-24T08:34:56.033Z,625
2018-02-24T08:35:56.753Z,640
2018-02-24T08:36:57.473Z,620
2018-02-24T08:37:58.198Z,630
2018-02-24T08:38:58.930Z,655
2018-02-24T08:39:59.662Z,665
2018-02-24T08:41:00.386Z,665
2018-02-24T08:42:01.108Z,665
2018-02-24T08:43:01.842Z,670
2018-02-24T08:44:02.563Z,680
2018-02-24T08:45:03.287Z,675
2018-02-24T08:46:04.020Z,680
2018-02-24T08:47:04.743Z,680
2018-02-24T08:48:05.465Z,695
2018-02-24T08:49:06.186Z,725
2018-02-24T08:50:06.910Z,710
2018-02-24T08:51:07.634Z,705
2018-02-24T08:52:08.356Z,720
2018-02-24T08:53:09.079Z,735
2018-02-24T08:54:09.816Z,725
2018-02-24T08:55:10.539Z,715
2018-02-24T08:56:11.274Z,715
2018-02-24T08:57:11.996Z,720
2018-02-24T08:58:12.720Z,740
2018-02-24T08:59:13.443Z,735
2018-02-24T09:00:14.166Z,745
2018-02-24T09:01:14.888Z,750
2018-02-24T09:02:15.611Z,770
2018-02-24T09:03:16.336Z,790
2018-02-24T09:04:17.060Z,765
2018-02-24T09:05:17.784Z,770
2018-02-24T09:06:18.508Z,790
2018-02-24T09:07:19.232Z,825
2018-02-24T09:08:19.955Z,820
2018-02-24T09:09:20.679Z,830
2018-02-24T09:10:21.405Z,830
2018-02-24T09:11:22.143Z,840
2018-02-24T09:12:22.850Z,845
2018-02-24T09:13:23.576Z,805
2018-02-24T09:14:24.301Z,825
2018-02-24T09:15:25.025Z,790
2018-02-24T09:16:25.749Z,725
2018-02-24T09:17:26.474Z,760
2018-02-24T09:18:27.203Z,850
2018-02-24T09:19:27.920Z,880
2018-02-24T09:20:28.657Z,895
2018-02-24T09:21:29.381Z,950
2018-02-24T09:22:30.119Z,970
2018-02-24T09:23:30.844Z,975
2018-02-24T09:24:31.571Z,945
2018-02-24T09:25:32.295Z,940
2018-02-24T09:26:33.031Z,970
2018-02-24T09:27:33.756Z,930
2018-02-24T09:28:34.483Z,885
2018-02-24T09:29:35.207Z,840
2018-02-24T09:30:35.932Z,870
2018-02-24T09:31:36.658Z,905
2018-02-24T09:32:37.393Z,970
2018-02-24T09:33:38.136Z,1005
2018-02-24T09:34:38.871Z,1020
2018-02-24T09:35:39.600Z,1020
2018-02-24T09:36:40.335Z,1035
2018-02-24T09:37:41.075Z,1010
2018-02-24T09:38:41.823Z,1005
2018-02-24T09:39:42.541Z,975
2018-02-24T09:40:43.267Z,975
2018-02-24T09:41:43.993Z,985
2018-02-24T09:42:44.721Z,1020
2018-02-24T09:43:45.448Z,1055
2018-02-24T09:44:46.186Z,1055
2018-02-24T09:45:46.914Z,1065
2018-02-24T09:46:47.640Z,1030
2018-02-24T09:47:48.381Z,1060
2018-02-24T09:48:49.109Z,1080
2018-02-24T09:49:49.835Z,1065
2018-02-24T09:50:50.563Z,1090
2018-02-24T09:51:51.303Z,1090
2018-02-24T09:52:52.044Z,1090
2018-02-24T09:53:52.773Z,1080
2018-02-24T09:54:53.500Z,1090
2018-02-24T09:55:54.238Z,1065
2018-02-24T09:56:54.966Z,1100
2018-02-24T09:57:55.693Z,1130
2018-02-24T09:58:56.424Z,1160
2018-02-24T09:59:57.150Z,1140
2018-02-24T10:00:57.877Z,1120
2018-02-24T10:01:58.607Z,1130
2018-02-24T10:02:59.335Z,1115
2018-02-24T10:04:00.065Z,1185
2018-02-24T10:05:00.794Z,1145
2018-02-24T10:06:01.522Z,1145
2018-02-24T10:07:02.249Z,1175
2018-02-24T10:08:02.989Z,1105
2018-02-24T10:09:03.731Z,1130
2018-02-24T10:10:04.460Z,1150
2018-02-24T10:11:05.202Z,1190
2018-02-24T10:12:05.931Z,1205
2018-02-24T10:13:06.659Z,1160
2018-02-24T10:14:07.399Z,1180
2018-02-24T10:15:08.134Z,1195
2018-02-24T10:16:08.868Z,395
2018-02-24T10:17:09.597Z,1195
2018-02-24T10:18:10.327Z,1185
2018-02-24T10:19:11.054Z,1160
2018-02-24T10:20:11.785Z,1185
2018-02-24T10:21:12.513Z,1230
2018-02-24T10:22:13.242Z,1280
2018-02-24T10:23:13.970Z,1280
2018-02-24T10:24:14.699Z,1245
2018-02-24T10:25:15.426Z,1210
2018-02-24T10:26:16.156Z,1230
2018-02-24T10:27:16.885Z,1180
2018-02-24T10:28:17.615Z,1135
2018-02-24T10:29:18.345Z,1110
2018-02-24T10:30:19.070Z,1055
2018-02-24T10:31:19.797Z,1105
2018-02-24T10:32:20.537Z,1210
2018-02-24T10:33:21.277Z,1300
2018-02-24T10:34:22.006Z,1305
2018-02-24T10:35:22.737Z,1290
2018-02-24T10:36:23.464Z,1300
2018-02-24T10:37:24.193Z,1305
2018-02-24T10:38:24.925Z,1305
2018-02-24T10:39:25.668Z,1315
2018-02-24T10:40:26.397Z,1345
2018-02-24T10:41:27.126Z,1320
2018-02-24T10:42:27.855Z,1290
2018-02-24T10:43:28.597Z,1275
2018-02-24T10:44:29.337Z,1280
2018-02-24T10:45:30.066Z,1340
2018-02-24T10:46:30.808Z,1415
2018-02-24T10:47:31.537Z,1420
2018-02-24T10:48:32.270Z,1335
2018-02-24T10:49:33.017Z,1360
2018-02-24T10:50:33.750Z,1375
2018-02-24T10:51:34.492Z,1435
2018-02-24T10:52:35.218Z,1230
2018-02-24T10:53:35.955Z,1265
2018-02-24T10:54:36.691Z,925
2018-02-24T10:55:37.420Z,1430
2018-02-24T10:56:38.161Z,1445
2018-02-24T10:57:38.888Z,1435
2018-02-24T10:58:39.615Z,1325
2018-02-24T10:59:40.345Z,1370
2018-02-24T11:00:41.071Z,1315
2018-02-24T11:01:41.798Z,1285
2018-02-24T11:02:42.527Z,1440
2018-02-24T11:03:43.258Z,1305
2018-02-24T11:04:43.986Z,1280
2018-02-24T11:05:44.710Z,580
2018-02-24T11:06:45.443Z,1485
2018-02-24T11:07:46.164Z,1535
2018-02-24T11:08:46.889Z,615
2018-02-24T11:09:47.611Z,685
2018-02-24T11:10:48.338Z,635
2018-02-24T11:11:49.064Z,465
2018-02-24T11:12:49.789Z,500
2018-02-24T11:13:50.518Z,505
2018-02-24T11:14:51.240Z,595
2018-02-24T11:15:51.962Z,530
2018-02-24T11:16:52.682Z,540
2018-02-24T11:17:53.405Z,535
2018-02-24T11:18:54.142Z,540
2018-02-24T11:19:54.860Z,555
2018-02-24T11:20:55.582Z,570
2018-02-24T11:21:56.317Z,625
2018-02-24T11:22:57.088Z,1065
2018-02-24T11:23:57.776Z,1720
2018-02-24T11:24:58.512Z,650
2018-02-24T11:25:59.244Z,835
2018-02-24T11:26:59.966Z,500
2018-02-24T11:28:00.691Z,515
2018-02-24T11:29:01.424Z,525
2018-02-24T11:30:02.142Z,625
2018-02-24T11:31:02.862Z,525
2018-02-24T11:32:03.581Z,535
2018-02-24T11:33:04.299Z,490
2018-02-24T11:34:05.020Z,455
2018-02-24T11:35:05.751Z,445
2018-02-24T11:36:06.472Z,490
2018-02-24T11:37:07.190Z,465
2018-02-24T11:38:07.908Z,480
2018-02-24T11:39:08.627Z,490
2018-02-24T11:40:09.345Z,480
2018-02-24T11:41:10.063Z,470
2018-02-24T11:42:10.784Z,480
2018-02-24T11:43:11.498Z,540
2018-02-24T11:44:12.215Z,670
2018-02-24T11:45:12.933Z,520
2018-02-24T11:46:13.653Z,525
2018-02-24T11:47:14.381Z,525
2018-02-24T11:48:15.100Z,530
2018-02-24T11:49:15.819Z,425
2018-02-24T11:50:16.536Z,570
2018-02-24T11:51:17.270Z,1560
2018-02-24T11:52:17.999Z,440
2018-02-24T11:53:18.716Z,430
2018-02-24T11:54:19.434Z,400
2018-02-24T11:55:20.152Z,400
2018-02-24T11:56:20.874Z,455
2018-02-24T11:57:21.588Z,1545
2018-02-24T11:58:22.308Z,1570
2018-02-24T11:59:23.027Z,1460
2018-02-24T12:00:23.749Z,1550
2018-02-24T12:01:24.481Z,475
2018-02-24T12:02:25.222Z,1420
2018-02-24T12:03:25.935Z,840
2018-02-24T12:04:26.672Z,655
2018-02-24T12:05:27.391Z,425
2018-02-24T12:06:28.111Z,365
2018-02-24T12:07:28.830Z,365
2018-02-24T12:08:29.547Z,370
2018-02-24T12:09:30.274Z,370
2018-02-24T12:10:30.992Z,340
2018-02-24T12:11:31.725Z,395
2018-02-24T12:12:32.454Z,740
2018-02-24T12:13:33.173Z,750
2018-02-24T12:14:33.888Z,655
2018-02-24T12:15:34.605Z,460
2018-02-24T12:16:35.323Z,530
2018-02-24T12:17:36.044Z,445
2018-02-24T12:18:36.763Z,1200
2018-02-24T12:19:37.482Z,1275
2018-02-24T12:20:38.202Z,1025
2018-02-24T12:21:38.922Z,460
2018-02-24T12:22:39.653Z,940
2018-02-24T12:23:40.383Z,505
2018-02-24T12:24:41.104Z,500
2018-02-24T12:25:41.824Z,1080
2018-02-24T12:26:42.557Z,470
2018-02-24T12:27:43.278Z,405
2018-02-24T12:28:44.008Z,355
2018-02-24T12:29:44.728Z,400
2018-02-24T12:30:45.445Z,335
2018-02-24T12:31:46.164Z,370
2018-02-24T12:32:46.883Z,725
2018-02-24T12:33:47.601Z,1185
2018-02-24T12:34:48.322Z,555
2018-02-24T12:35:49.039Z,1190
2018-02-24T12:36:49.761Z,1115
2018-02-24T12:37:50.481Z,1140
2018-02-24T12:38:51.201Z,1200
2018-02-24T12:39:51.923Z,1245
2018-02-24T12:40:52.656Z,1265
2018-02-24T12:41:53.378Z,1280
2018-02-24T12:42:54.099Z,1185
2018-02-24T12:43:54.837Z,985
2018-02-24T12:44:55.555Z,1335
2018-02-24T12:45:56.276Z,1355
2018-02-24T12:46:57.000Z,1355
2018-02-24T12:47:57.724Z,1365
2018-02-24T12:48:58.446Z,1390
2018-02-24T12:49:59.168Z,1290
2018-02-24T12:50:59.943Z,1035
2018-02-24T12:52:00.635Z,1090
2018-02-24T12:53:01.372Z,1410
2018-02-24T12:54:02.095Z,450
2018-02-24T12:55:02.818Z,365
2018-02-24T12:56:03.543Z,360
2018-02-24T12:57:04.260Z,285
2018-02-24T12:58:04.981Z,295
2018-02-24T12:59:05.714Z,285
2018-02-24T13:00:06.435Z,310
2018-02-24T13:01:07.167Z,455
2018-02-24T13:02:07.884Z,345
2018-02-24T13:03:08.618Z,1305
2018-02-24T13:04:09.338Z,1345
2018-02-24T13:05:10.059Z,1340
2018-02-24T13:06:10.792Z,1280
2018-02-24T13:07:11.527Z,1345
2018-02-24T13:08:12.248Z,1355
2018-02-24T13:09:12.970Z,1320
2018-02-24T13:10:13.695Z,1235
2018-02-24T13:11:14.430Z,1260
2018-02-24T13:12:15.153Z,1195
2018-02-24T13:13:15.887Z,1150
2018-02-24T13:14:16.609Z,1085
2018-02-24T13:15:17.330Z,950
2018-02-24T13:16:18.057Z,1015
2018-02-24T13:17:18.781Z,955
2018-02-24T13:18:19.501Z,1035
2018-02-24T13:19:20.224Z,1125
2018-02-24T13:20:20.948Z,1105
2018-02-24T13:21:21.683Z,1150
2018-02-24T13:22:22.409Z,1265
2018-02-24T13:23:23.135Z,1305
2018-02-24T13:24:23.859Z,1250
2018-02-24T13:25:24.586Z,1280
2018-02-24T13:26:25.311Z,1175
2018-02-24T13:27:26.053Z,1085
2018-02-24T13:28:26.778Z,1175
2018-02-24T13:29:27.516Z,1235
2018-02-24T13:30:28.244Z,1280
2018-02-24T13:31:28.980Z,1195
2018-02-24T13:32:29.707Z,840
2018-02-24T13:33:30.683Z,585
2018-02-24T13:34:31.421Z,1100
2018-02-24T13:35:32.149Z,1190
2018-02-24T13:36:32.875Z,1065
2018-02-24T13:37:33.605Z,1200
2018-02-24T13:38:34.577Z,1015
2018-02-24T13:39:35.306Z,1175
2018-02-24T13:40:36.044Z,915
2018-02-24T13:41:36.786Z,1080
2018-02-24T13:42:37.508Z,1160
2018-02-24T13:43:38.232Z,1025
2018-02-24T13:44:38.959Z,440
2018-02-24T13:45:39.683Z,405
2018-02-24T13:46:40.406Z,390
2018-02-24T13:47:41.128Z,435
2018-02-24T13:48:41.850Z,415
2018-02-24T13:49:42.572Z,405
2018-02-24T13:50:43.295Z,750
2018-02-24T13:51:44.030Z,825
2018-02-24T13:52:44.766Z,330
2018-02-24T13:53:45.499Z,615
2018-02-24T13:54:46.220Z,280
2018-02-24T13:55:46.952Z,1040
2018-02-24T13:56:47.674Z,335
2018-02-24T13:57:48.395Z,880
2018-02-24T13:58:49.115Z,850
2018-02-24T13:59:49.836Z,295
2018-02-24T14:00:50.557Z,310
2018-02-24T14:01:51.286Z,545
2018-02-24T14:02:52.055Z,370
2018-02-24T14:03:52.741Z,1060
2018-02-24T14:04:53.462Z,920
2018-02-24T14:05:54.184Z,915
2018-02-24T14:06:54.903Z,955
2018-02-24T14:07:55.624Z,1005
2018-02-24T14:08:56.345Z,995
2018-02-24T14:09:57.067Z,950
2018-02-24T14:10:57.788Z,920
2018-02-24T14:11:58.507Z,590
2018-02-24T14:12:59.226Z,260
2018-02-24T14:13:59.943Z,250
2018-02-24T14:15:00.676Z,225
2018-02-24T14:16:01.395Z,250
2018-02-24T14:17:02.126Z,270
2018-02-24T14:18:02.842Z,245
2018-02-24T14:19:03.560Z,730
2018-02-24T14:20:04.280Z,775